Aérodrome :
LOGIN :

S'inscrire | Disclaimer

   EN    FR    IT 

 










Légende :    VFR   VFR Marginal   IFR   IFR Intensif   IFR Très Intensif
Visi : 
Plafond : 
>= 8 km
>= 3000ft
5 à 8 km
1000 à 3000 ft
1500m à 5 km
500 à 1000 ft
800 à 1500m
200 à 500 ft
< 800m
< 200 ft
Symboles :   Orages  Brouillard  Fortes neiges  Fortes précipitations  Vent > 20 kt
SIGMETs :   Divers  Orages  Givrage  Turbulence  Onde Orograph.  Cendres Volcan.






- Altitude de l'aérodrome : 1895 ft


LSMM - Meiringen

DERNIER METAR :
  • 171120Z VRB05KT 9999 -RA FEW014 BKN017 OVC030 04/01 Q1012 RMK WHT

METARs EXPIRÉS :
  • 171050Z AUTO 30004KT 250V350 9999NDV -RA BKN013 BKN017 OVC031 04/02 Q1012 RERA RMK
  • 171020Z AUTO 21004KT 9999NDV -RA FEW013 BKN016 OVC019 04/02 Q1012 RERA RMK
  • 170950Z AUTO 25007KT 210V340 9999NDV -RA SCT012 BKN015 OVC017 03/02 Q1012 RERA RMK
  • 170920Z AUTO 25008KT 210V300 9999NDV -RA FEW009 SCT011 OVC014 03/02 Q1012 RERA RMK
  • 170850Z AUTO 28007KT 230V340 9999NDV RA SCT009 OVC013 03/01 Q1012 RMK
  • 170820Z AUTO 28007KT 240V330 9999NDV RA SCT011 OVC017 03/01 Q1012 RMK
  • 170750Z AUTO 28008KT 240V330 9999NDV -RA SCT013 SCT017 OVC020 04/02 Q1011 RMK
  • 170720Z AUTO 29007KT 220V350 9999NDV -RA FEW013 BKN017 OVC025 04/02 Q1011 RMK
  • 170650Z AUTO 25007KT 230V310 9999NDV -RA SCT014 OVC017 04/02 Q1011 RMK

Prévision TAF périmée.



MET'MAP, la Météo Aéronautique d'un coup d'oeil ! - Copyright ORBIFLY Décembre 2007 - Disclaimer

ORBIFLY MET'MAP TEAM :

Programmation & Développement : Alexandra Zaïnal
Sur une idée originale de : Baudouin d'Aumeries
Soutien technique & logistique : Manuel Goepfert
Assistance : Marc-Olivier Méhu




SOURCES & CREDITS :

   NOAA